createdAt,value
2022-10-13T00:00:16.784Z,1021.35
2022-10-13T00:01:17.033Z,1021.27
2022-10-13T00:02:17.414Z,1021.30
2022-10-13T00:03:17.274Z,1021.29
2022-10-13T00:04:17.444Z,1021.28
2022-10-13T00:05:17.605Z,1021.29
2022-10-13T00:06:17.780Z,1021.30
2022-10-13T00:07:17.967Z,1021.30
2022-10-13T00:08:18.125Z,1021.28
2022-10-13T00:09:18.296Z,1021.28
2022-10-13T00:10:18.459Z,1021.29
2022-10-13T00:11:18.637Z,1021.25
2022-10-13T00:12:19.059Z,1021.23
2022-10-13T00:13:18.945Z,1021.20
2022-10-13T00:14:19.148Z,1021.19
2022-10-13T00:15:19.297Z,1021.26
2022-10-13T00:16:19.516Z,1021.19
2022-10-13T00:17:19.668Z,1021.18
2022-10-13T00:18:19.858Z,1021.18
2022-10-13T00:19:20.020Z,1021.21
2022-10-13T00:20:20.179Z,1021.24
2022-10-13T00:21:20.350Z,1021.20
2022-10-13T00:22:20.990Z,1021.18
2022-10-13T00:23:20.677Z,1021.14
2022-10-13T00:24:20.839Z,1021.14
2022-10-13T00:25:21.001Z,1021.19
2022-10-13T00:26:21.170Z,1021.17
2022-10-13T00:27:21.321Z,1021.19
2022-10-13T00:28:21.554Z,1021.19
2022-10-13T00:29:21.707Z,1021.17
2022-10-13T00:30:21.871Z,1021.16
2022-10-13T00:31:22.052Z,1021.19
2022-10-13T00:32:22.212Z,1021.20
2022-10-13T00:33:22.401Z,1021.17
2022-10-13T00:34:22.590Z,1021.17
2022-10-13T00:35:22.765Z,1021.17
2022-10-13T00:36:22.960Z,1021.19
2022-10-13T00:37:23.120Z,1021.18
2022-10-13T00:38:23.278Z,1021.16
2022-10-13T00:39:23.434Z,1021.12
2022-10-13T00:40:23.593Z,1021.10
2022-10-13T00:41:23.754Z,1021.11
2022-10-13T00:42:23.916Z,1021.12
2022-10-13T00:43:24.072Z,1021.12
2022-10-13T00:44:24.226Z,1021.11
2022-10-13T00:45:24.416Z,1021.06
2022-10-13T00:46:24.594Z,1021.09
2022-10-13T00:47:24.745Z,1021.08
2022-10-13T00:48:24.907Z,1021.12
2022-10-13T00:49:25.076Z,1021.14
2022-10-13T00:50:25.228Z,1021.16
2022-10-13T00:51:25.437Z,1021.17
2022-10-13T00:52:25.598Z,1021.14
2022-10-13T00:53:25.797Z,1021.08
2022-10-13T00:54:25.957Z,1021.08
2022-10-13T00:55:26.116Z,1021.07
2022-10-13T00:56:26.279Z,1021.08
2022-10-13T00:57:26.440Z,1021.09
2022-10-13T00:58:26.591Z,1021.08
2022-10-13T00:59:26.789Z,1021.07
2022-10-13T01:00:27.010Z,1021.07
2022-10-13T01:01:27.149Z,1021.05
2022-10-13T01:02:27.311Z,1021.06
2022-10-13T01:03:27.500Z,1021.07
2022-10-13T01:04:27.651Z,1021.07
2022-10-13T01:05:27.850Z,1021.10
2022-10-13T01:06:28.022Z,1021.09
2022-10-13T01:07:28.192Z,1021.10
2022-10-13T01:08:28.363Z,1021.03
2022-10-13T01:09:28.542Z,1021.03
2022-10-13T01:10:28.711Z,1021.09
2022-10-13T01:11:28.887Z,1021.08
2022-10-13T01:12:29.041Z,1021.07
2022-10-13T01:13:29.203Z,1021.08
2022-10-13T01:14:29.383Z,1021.10
2022-10-13T01:15:29.556Z,1021.09
2022-10-13T01:16:29.714Z,1021.11
2022-10-13T01:17:29.864Z,1021.10
2022-10-13T01:18:30.036Z,1021.05
2022-10-13T01:19:30.207Z,1021.09
2022-10-13T01:20:30.357Z,1021.04
2022-10-13T01:21:30.545Z,1021.01
2022-10-13T01:22:30.715Z,1021.02
2022-10-13T01:23:30.875Z,1020.98
2022-10-13T01:24:31.046Z,1020.98
2022-10-13T01:25:31.214Z,1021.02
2022-10-13T01:26:31.373Z,1020.95
2022-10-13T01:27:31.537Z,1020.94
2022-10-13T01:28:31.746Z,1020.92
2022-10-13T01:29:31.955Z,1020.93
2022-10-13T01:30:32.048Z,1020.88
2022-10-13T01:31:32.237Z,1020.93
2022-10-13T01:32:32.398Z,1020.88
2022-10-13T01:33:32.561Z,1020.91
2022-10-13T01:34:32.738Z,1020.88
2022-10-13T01:35:32.898Z,1020.87
2022-10-13T01:36:33.059Z,1020.84
2022-10-13T01:37:33.218Z,1020.87
2022-10-13T01:38:33.402Z,1020.84
2022-10-13T01:39:33.550Z,1020.83
2022-10-13T01:40:33.719Z,1020.79
2022-10-13T01:41:33.871Z,1020.84
2022-10-13T01:42:34.060Z,1020.82
2022-10-13T01:43:34.227Z,1020.82
2022-10-13T01:44:34.397Z,1020.81
2022-10-13T01:45:34.556Z,1020.78
2022-10-13T01:46:34.721Z,1020.75
2022-10-13T01:47:34.879Z,1020.75
2022-10-13T01:48:35.054Z,1020.76
2022-10-13T01:49:35.212Z,1020.75
2022-10-13T01:50:35.362Z,1020.74
2022-10-13T01:51:35.554Z,1020.76
2022-10-13T01:52:35.722Z,1020.73
2022-10-13T01:53:35.934Z,1020.64
2022-10-13T01:54:36.091Z,1020.63
2022-10-13T01:55:36.253Z,1020.63
2022-10-13T01:56:36.404Z,1020.62
2022-10-13T01:57:36.600Z,1020.60
2022-10-13T01:58:36.776Z,1020.63
2022-10-13T01:59:36.940Z,1020.58
2022-10-13T02:00:37.136Z,1020.56
2022-10-13T02:01:37.285Z,1020.56
2022-10-13T02:02:37.454Z,1020.56
2022-10-13T02:03:37.657Z,1020.56
2022-10-13T02:04:37.807Z,1020.56
2022-10-13T02:05:38.005Z,1020.54
2022-10-13T02:06:38.167Z,1020.52
2022-10-13T02:07:38.338Z,1020.49
2022-10-13T02:08:38.493Z,1020.47
2022-10-13T02:09:38.689Z,1020.46
2022-10-13T02:10:38.871Z,1020.47
2022-10-13T02:11:39.037Z,1020.43
2022-10-13T02:12:39.209Z,1020.41
2022-10-13T02:13:39.396Z,1020.39
2022-10-13T02:14:39.518Z,1020.36
2022-10-13T02:15:39.681Z,1020.42
2022-10-13T02:16:39.839Z,1020.41
2022-10-13T02:17:40.033Z,1020.44
2022-10-13T02:18:40.158Z,1020.44
2022-10-13T02:19:40.324Z,1020.40
2022-10-13T02:20:40.480Z,1020.41
2022-10-13T02:21:40.642Z,1020.40
2022-10-13T02:22:40.840Z,1020.42
2022-10-13T02:23:41.001Z,1020.43
2022-10-13T02:24:41.161Z,1020.44
2022-10-13T02:25:41.321Z,1020.40
2022-10-13T02:26:41.488Z,1020.39
2022-10-13T02:27:41.641Z,1020.37
2022-10-13T02:28:41.832Z,1020.37
2022-10-13T02:29:41.972Z,1020.33
2022-10-13T02:30:42.132Z,1020.32
2022-10-13T02:31:42.335Z,1020.32
2022-10-13T02:32:42.494Z,1020.28
2022-10-13T02:33:42.686Z,1020.29
2022-10-13T02:34:42.854Z,1020.23
2022-10-13T02:35:43.005Z,1020.21
2022-10-13T02:36:43.165Z,1020.22
2022-10-13T02:37:43.328Z,1020.25
2022-10-13T02:38:43.485Z,1020.25
2022-10-13T02:39:43.697Z,1020.22
2022-10-13T02:40:43.845Z,1020.22
2022-10-13T02:41:44.040Z,1020.21
2022-10-13T02:42:44.196Z,1020.25
2022-10-13T02:43:44.376Z,1020.25
2022-10-13T02:44:44.536Z,1020.24
2022-10-13T02:45:44.702Z,1020.20
2022-10-13T02:46:44.859Z,1020.18
2022-10-13T02:47:45.018Z,1020.18
2022-10-13T02:48:45.190Z,1020.18
2022-10-13T02:49:45.349Z,1020.13
2022-10-13T02:50:45.509Z,1020.13
2022-10-13T02:51:45.668Z,1020.15
2022-10-13T02:52:45.827Z,1020.16
2022-10-13T02:53:45.999Z,1020.11
2022-10-13T02:54:46.169Z,1020.13
2022-10-13T02:55:46.317Z,1020.14
2022-10-13T02:56:46.474Z,1020.14
2022-10-13T02:57:46.645Z,1020.12
2022-10-13T02:58:46.820Z,1020.11
2022-10-13T02:59:46.983Z,1020.08
2022-10-13T03:00:47.181Z,1020.09
2022-10-13T03:01:47.393Z,1020.09
2022-10-13T03:02:47.507Z,1020.12
2022-10-13T03:03:47.717Z,1020.14
2022-10-13T03:04:47.872Z,1020.13
2022-10-13T03:05:48.042Z,1020.20
2022-10-13T03:06:48.203Z,1020.15
2022-10-13T03:07:48.403Z,1020.11
2022-10-13T03:08:48.574Z,1020.08
2022-10-13T03:09:48.731Z,1020.09
2022-10-13T03:10:48.902Z,1020.06
2022-10-13T03:11:49.043Z,1020.09
2022-10-13T03:12:49.204Z,1020.09
2022-10-13T03:13:49.375Z,1020.12
2022-10-13T03:14:49.537Z,1020.10
2022-10-13T03:15:49.709Z,1020.09
2022-10-13T03:16:49.875Z,1020.06
2022-10-13T03:17:50.046Z,1020.04
2022-10-13T03:18:50.226Z,1020.16
2022-10-13T03:19:50.385Z,1020.14
2022-10-13T03:20:50.545Z,1020.15
2022-10-13T03:21:50.701Z,1020.13
2022-10-13T03:22:50.857Z,1020.12
2022-10-13T03:23:51.038Z,1020.15
2022-10-13T03:24:51.207Z,1020.11
2022-10-13T03:25:51.376Z,1020.05
2022-10-13T03:26:51.548Z,1020.12
2022-10-13T03:27:51.698Z,1020.07
2022-10-13T03:28:51.952Z,1020.04
2022-10-13T03:29:52.038Z,1020.06
2022-10-13T03:30:52.198Z,1020.00
2022-10-13T03:31:52.364Z,1020.03
2022-10-13T03:32:52.559Z,1020.03
2022-10-13T03:33:52.738Z,1019.99
2022-10-13T03:34:52.910Z,1019.99
2022-10-13T03:35:53.069Z,1019.98
2022-10-13T03:36:53.220Z,1020.00
2022-10-13T03:37:53.418Z,1019.93
2022-10-13T03:38:53.605Z,1019.96
2022-10-13T03:39:53.770Z,1019.98
2022-10-13T03:40:53.941Z,1020.01
2022-10-13T03:41:54.112Z,1020.02
2022-10-13T03:42:54.276Z,1020.03
2022-10-13T03:43:54.451Z,1020.02
2022-10-13T03:44:56.585Z,1020.01
2022-10-13T03:45:54.772Z,1019.97
2022-10-13T03:46:54.942Z,1019.95
2022-10-13T03:47:55.113Z,1019.92
2022-10-13T03:48:55.289Z,1019.94
2022-10-13T03:49:55.444Z,1019.94
2022-10-13T03:50:55.604Z,1019.94
2022-10-13T03:51:55.764Z,1019.88
2022-10-13T03:52:55.933Z,1019.94
2022-10-13T03:53:56.107Z,1019.92
2022-10-13T03:54:56.275Z,1019.92
2022-10-13T03:55:56.435Z,1019.89
2022-10-13T03:56:56.587Z,1019.90
2022-10-13T03:57:56.765Z,1019.86
2022-10-13T03:58:56.936Z,1019.83
2022-10-13T03:59:57.106Z,1019.86
2022-10-13T04:00:57.297Z,1019.81
2022-10-13T04:01:57.506Z,1019.80
2022-10-13T04:02:57.666Z,1019.81
2022-10-13T04:03:57.837Z,1019.87
2022-10-13T04:04:58.009Z,1019.83
2022-10-13T04:05:58.165Z,1019.83
2022-10-13T04:06:58.338Z,1019.82
2022-10-13T04:07:58.518Z,1019.81
2022-10-13T04:08:58.679Z,1019.86
2022-10-13T04:09:58.838Z,1019.85
2022-10-13T04:10:59.010Z,1019.83
2022-10-13T04:11:59.188Z,1019.83
2022-10-13T04:12:59.331Z,1019.91
2022-10-13T04:13:59.500Z,1019.89
2022-10-13T04:14:59.671Z,1019.91
2022-10-13T04:15:59.842Z,1019.93
2022-10-13T04:17:00.022Z,1019.87
2022-10-13T04:18:00.180Z,1019.88
2022-10-13T04:19:00.380Z,1019.89
2022-10-13T04:20:00.531Z,1019.90
2022-10-13T04:21:00.741Z,1019.88
2022-10-13T04:22:00.912Z,1019.83
2022-10-13T04:23:01.083Z,1019.85
2022-10-13T04:24:01.257Z,1019.81
2022-10-13T04:25:01.436Z,1019.81
2022-10-13T04:26:01.603Z,1019.81
2022-10-13T04:27:01.782Z,1019.82
2022-10-13T04:28:01.959Z,1019.79
2022-10-13T04:29:02.115Z,1019.79
2022-10-13T04:30:02.295Z,1019.76
2022-10-13T04:31:02.453Z,1019.78
2022-10-13T04:32:02.605Z,1019.78
2022-10-13T04:33:02.794Z,1019.77
2022-10-13T04:34:02.951Z,1019.76
2022-10-13T04:35:03.157Z,1019.75
2022-10-13T04:36:03.323Z,1019.77
2022-10-13T04:37:03.494Z,1019.76
2022-10-13T04:38:03.646Z,1019.74
2022-10-13T04:39:03.812Z,1019.72
2022-10-13T04:40:03.976Z,1019.74
2022-10-13T04:41:04.136Z,1019.80
2022-10-13T04:42:04.298Z,1019.81
2022-10-13T04:43:04.455Z,1019.86
2022-10-13T04:44:04.606Z,1019.86
2022-10-13T04:45:04.793Z,1019.85
2022-10-13T04:46:04.958Z,1019.81
2022-10-13T04:47:05.128Z,1019.83
2022-10-13T04:48:05.293Z,1019.80
2022-10-13T04:49:05.478Z,1019.81
2022-10-13T04:50:05.658Z,1019.80
2022-10-13T04:51:05.830Z,1019.77
2022-10-13T04:52:05.990Z,1019.77
2022-10-13T04:53:06.162Z,1019.76
2022-10-13T04:54:06.349Z,1019.73
2022-10-13T04:55:06.520Z,1019.69
2022-10-13T04:56:06.682Z,1019.63
2022-10-13T04:57:06.850Z,1019.58
2022-10-13T04:58:07.015Z,1019.58
2022-10-13T04:59:07.208Z,1019.57
2022-10-13T05:00:07.380Z,1019.64
2022-10-13T05:01:07.614Z,1019.58
2022-10-13T05:02:07.737Z,1019.62
2022-10-13T05:03:07.902Z,1019.53
2022-10-13T05:04:08.084Z,1019.51
2022-10-13T05:05:08.261Z,1019.52
2022-10-13T05:06:08.433Z,1019.51
2022-10-13T05:07:24.056Z,1019.54
2022-10-13T05:08:09.754Z,1019.51
2022-10-13T05:09:08.936Z,1019.53
2022-10-13T05:10:09.083Z,1019.53
2022-10-13T05:11:09.253Z,1019.51
2022-10-13T05:12:09.430Z,1019.52
2022-10-13T05:13:09.593Z,1019.50
2022-10-13T05:14:09.775Z,1019.49
2022-10-13T05:15:09.945Z,1019.54
2022-10-13T05:16:10.114Z,1019.57
2022-10-13T05:17:10.285Z,1019.55
2022-10-13T05:18:10.446Z,1019.52
2022-10-13T05:19:10.646Z,1019.52
2022-10-13T05:20:10.783Z,1019.53
2022-10-13T05:21:10.948Z,1019.50
2022-10-13T05:22:11.117Z,1019.49
2022-10-13T05:23:11.293Z,1019.49
2022-10-13T05:24:11.479Z,1019.48
2022-10-13T05:25:11.658Z,1019.47
2022-10-13T05:26:11.837Z,1019.46
2022-10-13T05:27:11.999Z,1019.46
2022-10-13T05:28:12.236Z,1019.48
2022-10-13T05:29:12.350Z,1019.47
2022-10-13T05:30:12.511Z,1019.47
2022-10-13T05:31:12.694Z,1019.46
2022-10-13T05:32:12.859Z,1019.42
2022-10-13T05:33:13.030Z,1019.44
2022-10-13T05:34:13.221Z,1019.43
2022-10-13T05:35:13.387Z,1019.48
2022-10-13T05:36:13.550Z,1019.43
2022-10-13T05:37:13.723Z,1019.42
2022-10-13T05:38:13.891Z,1019.43
2022-10-13T05:39:14.092Z,1019.45
2022-10-13T05:40:14.233Z,1019.43
2022-10-13T05:41:14.413Z,1019.44
2022-10-13T05:42:14.587Z,1019.44
2022-10-13T05:43:14.792Z,1019.42
2022-10-13T05:44:14.950Z,1019.38
2022-10-13T05:45:15.287Z,1019.40
2022-10-13T05:46:15.299Z,1019.40
2022-10-13T05:47:15.490Z,1019.40
2022-10-13T05:48:15.675Z,1019.46
2022-10-13T05:49:15.880Z,1019.46
2022-10-13T05:50:16.031Z,1019.49
2022-10-13T05:51:16.245Z,1019.49
2022-10-13T05:52:16.563Z,1019.49
2022-10-13T05:53:16.565Z,1019.56
2022-10-13T05:54:16.755Z,1019.55
2022-10-13T05:55:16.915Z,1019.53
2022-10-13T05:56:17.115Z,1019.51
2022-10-13T05:57:17.273Z,1019.54
2022-10-13T05:58:17.425Z,1019.53
2022-10-13T05:59:17.613Z,1019.53
2022-10-13T06:00:17.818Z,1019.53
2022-10-13T06:01:17.968Z,1019.54
2022-10-13T06:02:18.479Z,1019.52
2022-10-13T06:03:18.316Z,1019.51
2022-10-13T06:04:18.508Z,1019.49
2022-10-13T06:05:18.682Z,1019.49
2022-10-13T06:06:18.842Z,1019.48
2022-10-13T06:07:19.026Z,1019.48
2022-10-13T06:08:19.220Z,1019.49
2022-10-13T06:09:19.381Z,1019.51
2022-10-13T06:10:19.549Z,1019.52
2022-10-13T06:11:19.709Z,1019.49
2022-10-13T06:12:20.257Z,1019.52
2022-10-13T06:13:20.040Z,1019.49
2022-10-13T06:14:20.196Z,1019.50
2022-10-13T06:15:24.443Z,1019.53
2022-10-13T06:16:21.566Z,1019.51
2022-10-13T06:17:20.736Z,1019.51
2022-10-13T06:18:20.921Z,1019.50
2022-10-13T06:19:21.120Z,1019.48
2022-10-13T06:20:21.283Z,1019.50
2022-10-13T06:21:21.442Z,1019.51
2022-10-13T06:22:22.173Z,1019.51
2022-10-13T06:23:21.761Z,1019.54
2022-10-13T06:24:21.957Z,1019.52
2022-10-13T06:25:22.153Z,1019.56
2022-10-13T06:26:22.308Z,1019.54
2022-10-13T06:27:22.494Z,1019.53
2022-10-13T06:28:22.745Z,1019.52
2022-10-13T06:29:22.865Z,1019.52
2022-10-13T06:30:23.014Z,1019.59
2022-10-13T06:31:23.206Z,1019.58
2022-10-13T06:32:23.615Z,1019.57
2022-10-13T06:33:23.543Z,1019.56
2022-10-13T06:34:23.690Z,1019.53
2022-10-13T06:35:23.877Z,1019.57
2022-10-13T06:36:24.036Z,1019.58
2022-10-13T06:37:27.341Z,1019.59
2022-10-13T06:38:24.411Z,1019.54
2022-10-13T06:39:24.567Z,1019.51
2022-10-13T06:40:24.760Z,1019.57
2022-10-13T06:41:24.938Z,1019.52
2022-10-13T06:42:25.151Z,1019.51
2022-10-13T06:43:31.726Z,1019.48
2022-10-13T06:44:26.488Z,1019.44
2022-10-13T06:45:25.658Z,1019.43
2022-10-13T06:46:25.811Z,1019.42
2022-10-13T06:47:26.245Z,1019.39
2022-10-13T06:48:26.159Z,1019.38
2022-10-13T06:49:26.349Z,1019.38
2022-10-13T06:50:26.541Z,1019.35
2022-10-13T06:51:26.730Z,1019.39
2022-10-13T06:52:26.898Z,1019.38
2022-10-13T06:53:27.065Z,1019.42
2022-10-13T06:54:27.213Z,1019.37
2022-10-13T06:55:27.386Z,1019.43
2022-10-13T06:56:27.579Z,1019.43
2022-10-13T06:57:27.721Z,1019.40
2022-10-13T06:58:27.905Z,1019.44
2022-10-13T06:59:28.098Z,1019.43
2022-10-13T07:00:28.309Z,1019.48
2022-10-13T07:01:28.483Z,1019.48
2022-10-13T07:02:28.621Z,1019.46
2022-10-13T07:03:28.802Z,1019.45
2022-10-13T07:04:28.953Z,1019.39
2022-10-13T07:05:29.134Z,1019.33
2022-10-13T07:06:29.301Z,1019.31
2022-10-13T07:07:29.474Z,1019.26
2022-10-13T07:08:29.654Z,1019.36
2022-10-13T07:09:29.835Z,1019.35
2022-10-13T07:10:30.020Z,1019.35
2022-10-13T07:11:30.221Z,1019.35
2022-10-13T07:12:30.381Z,1019.34
2022-10-13T07:13:33.586Z,1019.28
2022-10-13T07:14:31.746Z,1019.30
2022-10-13T07:15:30.895Z,1019.27
2022-10-13T07:16:31.109Z,1019.30
2022-10-13T07:17:31.249Z,1019.27
2022-10-13T07:18:31.437Z,1019.31
2022-10-13T07:19:31.636Z,1019.31
2022-10-13T07:20:31.788Z,1019.30
2022-10-13T07:21:31.996Z,1019.30
2022-10-13T07:22:32.133Z,1019.29
2022-10-13T07:23:32.317Z,1019.27
2022-10-13T07:24:32.519Z,1019.27
2022-10-13T07:25:32.696Z,1019.23
2022-10-13T07:26:32.882Z,1019.16
2022-10-13T07:27:33.060Z,1019.22
2022-10-13T07:28:33.307Z,1019.21
2022-10-13T07:29:33.440Z,1019.19
2022-10-13T07:30:33.600Z,1019.20
2022-10-13T07:31:33.777Z,1019.15
2022-10-13T07:32:33.940Z,1019.13
2022-10-13T07:33:34.122Z,1019.12
2022-10-13T07:34:34.312Z,1019.08
2022-10-13T07:35:34.501Z,1019.12
2022-10-13T07:36:34.701Z,1019.12
2022-10-13T07:37:34.863Z,1019.15
2022-10-13T07:38:35.051Z,1019.10
2022-10-13T07:39:35.232Z,1019.08
2022-10-13T07:40:35.424Z,1019.13
2022-10-13T07:41:35.613Z,1019.07
2022-10-13T07:42:35.777Z,1019.09
2022-10-13T07:43:35.947Z,1019.11
2022-10-13T07:44:36.138Z,1019.12
2022-10-13T07:45:36.304Z,1019.13
2022-10-13T07:46:36.480Z,1019.14
2022-10-13T07:47:36.655Z,1019.17
2022-10-13T07:48:36.846Z,1019.15
2022-10-13T07:49:37.008Z,1019.18
2022-10-13T07:50:37.185Z,1019.21
2022-10-13T07:51:37.363Z,1019.19
2022-10-13T07:52:37.556Z,1019.17
2022-10-13T07:53:37.719Z,1019.17
2022-10-13T07:54:37.907Z,1019.19
2022-10-13T07:55:38.075Z,1019.21
2022-10-13T07:56:38.269Z,1019.16
2022-10-13T07:57:38.450Z,1019.12
2022-10-13T07:58:38.637Z,1019.12
2022-10-13T07:59:38.830Z,1019.14
2022-10-13T08:00:38.982Z,1019.15
2022-10-13T08:01:39.191Z,1019.11
2022-10-13T08:02:39.309Z,1019.09
2022-10-13T08:03:41.102Z,1019.07
2022-10-13T08:04:39.651Z,1019.12
2022-10-13T08:05:39.810Z,1019.15
2022-10-13T08:07:40.160Z,1019.07
2022-10-13T08:08:40.332Z,1019.10
2022-10-13T08:09:40.531Z,1019.06
2022-10-13T08:10:40.822Z,1019.02
2022-10-13T08:11:40.861Z,1019.02
2022-10-13T08:12:41.048Z,1019.02
2022-10-13T08:13:41.211Z,1019.00
2022-10-13T08:14:41.471Z,1019.02
2022-10-13T08:15:41.543Z,1018.98
2022-10-13T08:16:41.721Z,1018.96
2022-10-13T08:17:41.886Z,1018.95
2022-10-13T08:18:42.053Z,1018.94
2022-10-13T08:19:42.234Z,1018.95
2022-10-13T08:20:43.913Z,1018.91
2022-10-13T08:21:59.587Z,1018.89
2022-10-13T08:22:43.754Z,1018.87
2022-10-13T08:23:42.924Z,1018.88
2022-10-13T08:24:43.125Z,1018.85
2022-10-13T08:25:43.290Z,1018.88
2022-10-13T08:26:43.479Z,1018.84
2022-10-13T08:27:51.115Z,1018.85
2022-10-13T08:28:57.508Z,1018.90
2022-10-13T08:29:45.046Z,1018.88
2022-10-13T08:30:44.290Z,1018.93
2022-10-13T08:31:44.590Z,1018.90
2022-10-13T08:32:44.566Z,1018.90
2022-10-13T08:33:44.713Z,1018.92
2022-10-13T08:34:44.909Z,1018.95
2022-10-13T08:35:45.095Z,1018.89
2022-10-13T08:36:45.260Z,1018.95
2022-10-13T08:37:45.429Z,1018.94
2022-10-13T08:38:45.619Z,1018.89
2022-10-13T08:39:45.789Z,1018.90
2022-10-13T08:40:45.969Z,1018.88
2022-10-13T08:41:46.130Z,1018.86
2022-10-13T08:42:46.290Z,1018.87
2022-10-13T08:44:24.721Z,1018.89
2022-10-13T08:45:16.106Z,1018.84
2022-10-13T08:45:47.790Z,1018.83
2022-10-13T08:46:46.971Z,1018.79
2022-10-13T08:47:47.161Z,1018.73
2022-10-13T08:48:47.333Z,1018.71
2022-10-13T08:49:47.513Z,1018.70
2022-10-13T08:50:47.705Z,1018.70
2022-10-13T08:51:47.893Z,1018.68
2022-10-13T08:52:48.093Z,1018.69
2022-10-13T08:53:48.235Z,1018.70
2022-10-13T08:54:48.424Z,1018.68
2022-10-13T08:55:48.573Z,1018.63
2022-10-13T08:56:48.785Z,1018.58
2022-10-13T08:57:48.945Z,1018.59
2022-10-13T08:58:49.107Z,1018.57
2022-10-13T08:59:49.266Z,1018.60
2022-10-13T09:00:49.455Z,1018.54
2022-10-13T09:01:49.689Z,1018.56
2022-10-13T09:02:49.870Z,1018.60
2022-10-13T09:03:50.007Z,1018.59
2022-10-13T09:04:50.187Z,1018.57
2022-10-13T09:05:50.368Z,1018.62
2022-10-13T09:06:50.562Z,1018.61
2022-10-13T09:07:50.837Z,1018.59
2022-10-13T09:08:50.919Z,1018.55
2022-10-13T09:09:51.099Z,1018.61
2022-10-13T09:10:51.279Z,1018.58
2022-10-13T09:11:51.465Z,1018.57
2022-10-13T09:12:51.690Z,1018.59
2022-10-13T09:13:51.827Z,1018.57
2022-10-13T09:14:52.016Z,1018.52
2022-10-13T09:15:52.202Z,1018.55
2022-10-13T09:16:52.401Z,1018.54
2022-10-13T09:17:52.573Z,1018.55
2022-10-13T09:18:52.741Z,1018.54
2022-10-13T09:19:52.925Z,1018.55
2022-10-13T09:20:53.112Z,1018.55
2022-10-13T09:21:53.315Z,1018.54
2022-10-13T09:22:53.478Z,1018.60
2022-10-13T09:23:53.661Z,1018.59
2022-10-13T09:24:53.847Z,1018.59
2022-10-13T09:25:54.033Z,1018.59
2022-10-13T09:26:54.234Z,1018.64
2022-10-13T09:27:54.519Z,1018.63
2022-10-13T09:28:54.688Z,1018.62
2022-10-13T09:29:54.757Z,1018.58
2022-10-13T09:30:54.946Z,1018.59
2022-10-13T09:31:55.126Z,1018.60
2022-10-13T09:32:55.306Z,1018.61
2022-10-13T09:33:55.447Z,1018.63
2022-10-13T09:34:55.635Z,1018.68
2022-10-13T09:35:55.818Z,1018.65
2022-10-13T09:36:56.027Z,1018.66
2022-10-13T09:37:56.180Z,1018.69
2022-10-13T09:38:56.368Z,1018.64
2022-10-13T09:39:56.553Z,1018.61
2022-10-13T09:40:56.739Z,1018.63
2022-10-13T09:41:56.941Z,1018.65
2022-10-13T09:42:57.099Z,1018.63
2022-10-13T09:43:57.288Z,1018.67
2022-10-13T09:44:57.453Z,1018.69
2022-10-13T09:45:57.624Z,1018.67
2022-10-13T09:46:57.821Z,1018.67
2022-10-13T09:47:57.971Z,1018.63
2022-10-13T09:48:58.128Z,1018.66
2022-10-13T09:50:00.061Z,1018.62
2022-10-13T09:50:58.500Z,1018.65
2022-10-13T09:51:58.688Z,1018.68
2022-10-13T09:52:58.851Z,1018.69
2022-10-13T09:53:59.037Z,1018.70
2022-10-13T09:54:59.242Z,1018.71
2022-10-13T09:55:59.384Z,1018.68
2022-10-13T09:56:59.583Z,1018.67
2022-10-13T09:57:59.758Z,1018.66
2022-10-13T09:58:59.915Z,1018.71
2022-10-13T10:01:00.273Z,1018.63
2022-10-13T10:02:00.453Z,1018.62
2022-10-13T10:03:00.645Z,1018.62
2022-10-13T10:04:00.894Z,1018.63
2022-10-13T10:05:00.995Z,1018.57
2022-10-13T10:06:01.233Z,1018.59
2022-10-13T10:07:01.355Z,1018.56
2022-10-13T10:08:01.557Z,1018.54
2022-10-13T10:09:04.145Z,1018.57
2022-10-13T10:10:01.876Z,1018.55
2022-10-13T10:11:02.069Z,1018.56
2022-10-13T10:12:02.251Z,1018.51
2022-10-13T10:13:02.686Z,1018.49
2022-10-13T10:14:02.609Z,1018.50
2022-10-13T10:15:02.814Z,1018.41
2022-10-13T10:16:03.007Z,1018.39
2022-10-13T10:17:03.159Z,1018.42
2022-10-13T10:18:03.322Z,1018.42
2022-10-13T10:19:03.502Z,1018.40
2022-10-13T10:20:03.672Z,1018.40
2022-10-13T10:21:03.845Z,1018.41
2022-10-13T10:22:04.026Z,1018.35
2022-10-13T10:23:04.215Z,1018.36
2022-10-13T10:24:04.374Z,1018.37
2022-10-13T10:25:04.560Z,1018.34
2022-10-13T10:26:04.744Z,1018.32
2022-10-13T10:27:05.045Z,1018.26
2022-10-13T10:28:05.103Z,1018.27
2022-10-13T10:29:05.273Z,1018.19
2022-10-13T10:30:05.444Z,1018.19
2022-10-13T10:31:05.622Z,1018.18
2022-10-13T10:32:05.806Z,1018.13
2022-10-13T10:33:05.973Z,1018.15
2022-10-13T10:34:06.133Z,1018.16
2022-10-13T10:35:06.305Z,1018.13
2022-10-13T10:36:06.466Z,1018.11
2022-10-13T10:37:06.647Z,1018.07
2022-10-13T10:38:06.798Z,1018.06
2022-10-13T10:39:06.990Z,1018.10
2022-10-13T10:40:07.150Z,1018.04
2022-10-13T10:41:07.310Z,1018.09
2022-10-13T10:42:07.506Z,1018.09
2022-10-13T10:43:07.668Z,1018.09
2022-10-13T10:44:07.848Z,1018.07
2022-10-13T10:45:08.059Z,1018.03
2022-10-13T10:46:08.220Z,1018.04
2022-10-13T10:47:08.371Z,1018.01
2022-10-13T10:48:08.571Z,1018.01
2022-10-13T10:49:08.745Z,1017.96
2022-10-13T10:50:08.923Z,1017.98
2022-10-13T10:51:09.091Z,1017.98
2022-10-13T10:52:09.242Z,1017.96
2022-10-13T10:53:09.433Z,1017.95
2022-10-13T10:54:09.622Z,1017.94
2022-10-13T10:55:09.792Z,1017.92
2022-10-13T10:56:09.979Z,1017.90
2022-10-13T10:57:10.174Z,1017.94
2022-10-13T10:58:10.354Z,1017.93
2022-10-13T10:59:10.514Z,1017.91
2022-10-13T11:00:10.741Z,1017.92
2022-10-13T11:01:10.942Z,1017.92
2022-10-13T11:02:11.055Z,1017.95
2022-10-13T11:03:11.263Z,1017.90
2022-10-13T11:04:11.472Z,1017.89
2022-10-13T11:05:11.587Z,1017.94
2022-10-13T11:06:11.777Z,1017.88
2022-10-13T11:07:11.971Z,1017.91
2022-10-13T11:08:12.167Z,1017.90
2022-10-13T11:09:12.353Z,1017.90
2022-10-13T11:10:12.510Z,1017.87
2022-10-13T11:11:12.708Z,1017.85
2022-10-13T11:12:12.870Z,1017.84
2022-10-13T11:13:13.079Z,1017.81
2022-10-13T11:14:13.229Z,1017.83
2022-10-13T11:15:13.420Z,1017.85
2022-10-13T11:16:13.608Z,1017.86
2022-10-13T11:17:13.792Z,1017.85
2022-10-13T11:18:16.451Z,1017.81
2022-10-13T11:19:14.173Z,1017.79
2022-10-13T11:20:14.360Z,1017.76
2022-10-13T11:21:14.545Z,1017.73
2022-10-13T11:22:14.728Z,1017.70
2022-10-13T11:23:14.953Z,1017.72
2022-10-13T11:24:15.093Z,1017.70
2022-10-13T11:25:15.267Z,1017.70
2022-10-13T11:26:15.455Z,1017.72
2022-10-13T11:27:15.650Z,1017.73
2022-10-13T11:28:15.863Z,1017.72
2022-10-13T11:29:15.996Z,1017.71
2022-10-13T11:30:16.154Z,1017.64
2022-10-13T11:31:16.326Z,1017.61
2022-10-13T11:32:16.494Z,1017.63
2022-10-13T11:33:16.676Z,1017.64
2022-10-13T11:34:16.886Z,1017.55
2022-10-13T11:35:17.038Z,1017.61
2022-10-13T11:36:17.226Z,1017.54
2022-10-13T11:37:17.418Z,1017.47
2022-10-13T11:38:18.004Z,1017.48
2022-10-13T11:39:17.837Z,1017.46
2022-10-13T11:40:17.979Z,1017.43
2022-10-13T11:41:18.158Z,1017.42
2022-10-13T11:42:18.497Z,1017.38
2022-10-13T11:43:18.530Z,1017.35
2022-10-13T11:44:18.796Z,1017.32
2022-10-13T11:45:18.901Z,1017.31
2022-10-13T11:46:19.070Z,1017.28
2022-10-13T11:47:19.512Z,1017.31
2022-10-13T11:48:19.422Z,1017.35
2022-10-13T11:49:19.572Z,1017.31
2022-10-13T11:50:19.759Z,1017.35
2022-10-13T11:51:19.963Z,1017.34
2022-10-13T11:52:20.383Z,1017.31
2022-10-13T11:53:20.301Z,1017.30
2022-10-13T11:54:20.483Z,1017.23
2022-10-13T11:55:20.674Z,1017.24
2022-10-13T11:56:20.878Z,1017.19
2022-10-13T11:57:21.034Z,1017.18
2022-10-13T11:58:21.197Z,1017.19
2022-10-13T11:59:21.377Z,1017.19
2022-10-13T12:00:21.556Z,1017.17
2022-10-13T12:01:21.730Z,1017.11
2022-10-13T12:02:22.351Z,1017.15
2022-10-13T12:03:22.068Z,1017.17
2022-10-13T12:04:22.240Z,1017.17
2022-10-13T12:05:22.406Z,1017.17
2022-10-13T12:06:22.558Z,1017.15
2022-10-13T12:07:22.760Z,1017.18
2022-10-13T12:08:22.928Z,1017.16
2022-10-13T12:09:23.098Z,1017.16